sensor_id;sensor_type;location;lat;lon;timestamp;pressure;altitude;pressure_sealevel;temperature;humidity
76128;BME280;64873;50.102;14.434;2023-12-04T00:00:32;99976.00;;;-4.09;84.70
76128;BME280;64873;50.102;14.434;2023-12-04T00:02:58;99992.50;;;-4.21;84.50
76128;BME280;64873;50.102;14.434;2023-12-04T00:05:23;99981.00;;;-4.18;84.65
76128;BME280;64873;50.102;14.434;2023-12-04T00:07:48;99973.06;;;-4.17;84.38
76128;BME280;64873;50.102;14.434;2023-12-04T00:10:14;99976.84;;;-4.21;84.64
76128;BME280;64873;50.102;14.434;2023-12-04T00:12:40;99967.25;;;-4.33;84.03
76128;BME280;64873;50.102;14.434;2023-12-04T00:15:06;99973.50;;;-4.48;84.23
76128;BME280;64873;50.102;14.434;2023-12-04T00:17:31;99952.75;;;-4.50;84.66
76128;BME280;64873;50.102;14.434;2023-12-04T00:19:57;99965.06;;;-4.39;84.95
76128;BME280;64873;50.102;14.434;2023-12-04T00:22:22;99965.16;;;-4.41;85.14
76128;BME280;64873;50.102;14.434;2023-12-04T00:24:49;99963.28;;;-4.51;84.41
76128;BME280;64873;50.102;14.434;2023-12-04T00:27:14;99967.47;;;-4.49;84.99
76128;BME280;64873;50.102;14.434;2023-12-04T00:29:39;99972.97;;;-4.53;84.59
76128;BME280;64873;50.102;14.434;2023-12-04T00:32:05;99975.78;;;-4.69;84.12
76128;BME280;64873;50.102;14.434;2023-12-04T00:34:30;99976.00;;;-4.60;84.81
76128;BME280;64873;50.102;14.434;2023-12-04T00:36:56;99983.28;;;-4.52;84.50
76128;BME280;64873;50.102;14.434;2023-12-04T00:39:21;99970.59;;;-4.57;84.93
76128;BME280;64873;50.102;14.434;2023-12-04T00:41:47;99974.44;;;-4.62;83.85
76128;BME280;64873;50.102;14.434;2023-12-04T00:44:12;99971.63;;;-4.59;83.74
76128;BME280;64873;50.102;14.434;2023-12-04T00:46:38;99964.31;;;-4.79;83.17
76128;BME280;64873;50.102;14.434;2023-12-04T00:49:03;99969.09;;;-4.86;83.71
76128;BME280;64873;50.102;14.434;2023-12-04T00:51:28;99963.25;;;-4.77;84.31
76128;BME280;64873;50.102;14.434;2023-12-04T00:53:54;99971.78;;;-4.75;83.73
76128;BME280;64873;50.102;14.434;2023-12-04T00:56:19;99969.94;;;-4.73;83.33
76128;BME280;64873;50.102;14.434;2023-12-04T00:58:46;99960.53;;;-4.88;84.04
76128;BME280;64873;50.102;14.434;2023-12-04T01:01:11;99945.09;;;-5.04;83.46
76128;BME280;64873;50.102;14.434;2023-12-04T01:03:37;99957.81;;;-4.87;83.67
76128;BME280;64873;50.102;14.434;2023-12-04T01:06:03;99956.47;;;-4.92;84.11
76128;BME280;64873;50.102;14.434;2023-12-04T01:08:29;99955.41;;;-5.02;83.57
76128;BME280;64873;50.102;14.434;2023-12-04T01:10:54;99962.59;;;-4.93;84.21
76128;BME280;64873;50.102;14.434;2023-12-04T01:13:19;99955.28;;;-5.01;84.35
76128;BME280;64873;50.102;14.434;2023-12-04T01:15:45;99974.03;;;-5.08;83.85
76128;BME280;64873;50.102;14.434;2023-12-04T01:18:11;99980.53;;;-4.89;84.01
76128;BME280;64873;50.102;14.434;2023-12-04T01:20:37;99984.81;;;-4.88;84.45
76128;BME280;64873;50.102;14.434;2023-12-04T01:23:02;99992.75;;;-4.89;84.43
76128;BME280;64873;50.102;14.434;2023-12-04T01:25:28;99990.53;;;-4.95;84.42
76128;BME280;64873;50.102;14.434;2023-12-04T01:27:53;99991.00;;;-4.76;84.08
76128;BME280;64873;50.102;14.434;2023-12-04T01:30:18;99989.09;;;-4.87;83.90
76128;BME280;64873;50.102;14.434;2023-12-04T01:32:44;99984.69;;;-4.99;83.56
76128;BME280;64873;50.102;14.434;2023-12-04T01:35:09;99988.59;;;-5.19;84.06
76128;BME280;64873;50.102;14.434;2023-12-04T01:37:36;99989.25;;;-5.15;84.49
76128;BME280;64873;50.102;14.434;2023-12-04T01:40:02;99983.31;;;-5.04;84.15
76128;BME280;64873;50.102;14.434;2023-12-04T01:42:31;99986.13;;;-5.07;83.49
76128;BME280;64873;50.102;14.434;2023-12-04T01:44:57;99996.69;;;-5.23;84.27
76128;BME280;64873;50.102;14.434;2023-12-04T01:47:22;99980.25;;;-5.24;83.50
76128;BME280;64873;50.102;14.434;2023-12-04T01:49:47;99989.56;;;-5.34;83.71
76128;BME280;64873;50.102;14.434;2023-12-04T01:52:13;99976.28;;;-5.17;84.30
76128;BME280;64873;50.102;14.434;2023-12-04T01:54:38;99980.91;;;-5.07;83.84
76128;BME280;64873;50.102;14.434;2023-12-04T01:57:05;99977.75;;;-5.25;84.02
76128;BME280;64873;50.102;14.434;2023-12-04T01:59:31;99979.41;;;-5.24;84.79
76128;BME280;64873;50.102;14.434;2023-12-04T02:01:57;99974.63;;;-5.18;84.35
76128;BME280;64873;50.102;14.434;2023-12-04T02:04:23;99971.88;;;-5.29;84.26
76128;BME280;64873;50.102;14.434;2023-12-04T02:06:49;99971.69;;;-5.26;84.26
76128;BME280;64873;50.102;14.434;2023-12-04T02:09:14;99972.97;;;-5.19;84.30
76128;BME280;64873;50.102;14.434;2023-12-04T02:11:41;99972.63;;;-5.54;84.57
76128;BME280;64873;50.102;14.434;2023-12-04T02:14:07;99967.84;;;-5.47;84.76
76128;BME280;64873;50.102;14.434;2023-12-04T02:16:38;99964.13;;;-5.43;85.15
76128;BME280;64873;50.102;14.434;2023-12-04T02:19:07;99963.31;;;-5.44;85.18
76128;BME280;64873;50.102;14.434;2023-12-04T02:21:32;99959.09;;;-5.46;85.66
76128;BME280;64873;50.102;14.434;2023-12-04T02:23:58;99953.06;;;-5.47;85.61
76128;BME280;64873;50.102;14.434;2023-12-04T02:26:28;99949.28;;;-5.55;85.33
76128;BME280;64873;50.102;14.434;2023-12-04T02:28:58;99945.53;;;-5.51;85.61
76128;BME280;64873;50.102;14.434;2023-12-04T02:31:27;99934.34;;;-5.66;85.68
76128;BME280;64873;50.102;14.434;2023-12-04T02:33:55;99932.41;;;-5.63;86.11
76128;BME280;64873;50.102;14.434;2023-12-04T02:36:23;99943.88;;;-5.52;85.90
76128;BME280;64873;50.102;14.434;2023-12-04T02:38:50;99945.88;;;-5.70;85.79
76128;BME280;64873;50.102;14.434;2023-12-04T02:41:15;99936.75;;;-5.63;86.77
76128;BME280;64873;50.102;14.434;2023-12-04T02:43:43;99935.88;;;-5.49;86.62
76128;BME280;64873;50.102;14.434;2023-12-04T02:46:08;99929.09;;;-5.52;86.36
76128;BME280;64873;50.102;14.434;2023-12-04T02:48:33;99942.56;;;-5.45;85.90
76128;BME280;64873;50.102;14.434;2023-12-04T02:50:59;99936.44;;;-5.44;86.86
76128;BME280;64873;50.102;14.434;2023-12-04T02:53:24;99930.13;;;-5.54;86.36
76128;BME280;64873;50.102;14.434;2023-12-04T02:55:50;99925.63;;;-5.38;86.31
76128;BME280;64873;50.102;14.434;2023-12-04T02:58:15;99933.06;;;-5.46;86.22
76128;BME280;64873;50.102;14.434;2023-12-04T03:00:40;99919.88;;;-5.43;86.28
76128;BME280;64873;50.102;14.434;2023-12-04T03:03:06;99919.34;;;-5.36;85.97
76128;BME280;64873;50.102;14.434;2023-12-04T03:05:31;99910.97;;;-5.53;85.98
76128;BME280;64873;50.102;14.434;2023-12-04T03:07:57;99932.16;;;-5.45;86.25
76128;BME280;64873;50.102;14.434;2023-12-04T03:10:22;99928.34;;;-5.27;85.93
76128;BME280;64873;50.102;14.434;2023-12-04T03:12:48;99929.56;;;-5.45;86.54
76128;BME280;64873;50.102;14.434;2023-12-04T03:15:13;99915.59;;;-5.44;86.16
76128;BME280;64873;50.102;14.434;2023-12-04T03:17:39;99908.81;;;-5.47;86.26
76128;BME280;64873;50.102;14.434;2023-12-04T03:20:05;99904.75;;;-5.51;86.18
76128;BME280;64873;50.102;14.434;2023-12-04T03:22:34;99888.66;;;-5.57;85.89
76128;BME280;64873;50.102;14.434;2023-12-04T03:25:01;99884.91;;;-5.66;86.30
76128;BME280;64873;50.102;14.434;2023-12-04T03:27:26;99882.59;;;-5.71;86.72
76128;BME280;64873;50.102;14.434;2023-12-04T03:29:52;99876.03;;;-5.64;87.28
76128;BME280;64873;50.102;14.434;2023-12-04T03:32:17;99894.25;;;-5.64;86.78
76128;BME280;64873;50.102;14.434;2023-12-04T03:34:42;99883.28;;;-5.54;87.17
76128;BME280;64873;50.102;14.434;2023-12-04T03:37:08;99891.00;;;-5.40;86.95
76128;BME280;64873;50.102;14.434;2023-12-04T03:39:33;99889.56;;;-5.44;86.26
76128;BME280;64873;50.102;14.434;2023-12-04T03:41:59;99902.56;;;-5.44;86.17
76128;BME280;64873;50.102;14.434;2023-12-04T03:44:25;99896.81;;;-5.49;85.04
76128;BME280;64873;50.102;14.434;2023-12-04T03:46:50;99893.28;;;-5.48;85.28
76128;BME280;64873;50.102;14.434;2023-12-04T03:49:17;99890.09;;;-5.66;85.36
76128;BME280;64873;50.102;14.434;2023-12-04T03:51:42;99885.16;;;-5.56;85.41
76128;BME280;64873;50.102;14.434;2023-12-04T03:54:08;99882.63;;;-5.58;84.64
76128;BME280;64873;50.102;14.434;2023-12-04T03:56:33;99880.53;;;-5.66;85.19
76128;BME280;64873;50.102;14.434;2023-12-04T03:58:59;99883.69;;;-5.75;85.08
76128;BME280;64873;50.102;14.434;2023-12-04T04:01:24;99879.63;;;-5.52;85.19
76128;BME280;64873;50.102;14.434;2023-12-04T04:03:50;99860.09;;;-5.72;85.54
76128;BME280;64873;50.102;14.434;2023-12-04T04:06:15;99877.59;;;-5.74;85.59
76128;BME280;64873;50.102;14.434;2023-12-04T04:08:41;99867.56;;;-5.80;85.65
76128;BME280;64873;50.102;14.434;2023-12-04T04:11:07;99861.97;;;-5.74;85.84
76128;BME280;64873;50.102;14.434;2023-12-04T04:13:32;99870.25;;;-5.81;85.41
76128;BME280;64873;50.102;14.434;2023-12-04T04:15:58;99866.97;;;-5.71;85.52
76128;BME280;64873;50.102;14.434;2023-12-04T04:18:23;99856.69;;;-5.86;85.61
76128;BME280;64873;50.102;14.434;2023-12-04T04:20:48;99882.09;;;-5.90;85.76
76128;BME280;64873;50.102;14.434;2023-12-04T04:23:14;99874.06;;;-5.87;85.38
76128;BME280;64873;50.102;14.434;2023-12-04T04:25:39;99871.28;;;-6.11;85.59
76128;BME280;64873;50.102;14.434;2023-12-04T04:28:05;99866.66;;;-6.06;86.29
76128;BME280;64873;50.102;14.434;2023-12-04T04:30:30;99878.47;;;-6.14;86.47
76128;BME280;64873;50.102;14.434;2023-12-04T04:32:56;99877.38;;;-6.25;86.11
76128;BME280;64873;50.102;14.434;2023-12-04T04:35:21;99873.31;;;-6.43;86.41
76128;BME280;64873;50.102;14.434;2023-12-04T04:37:47;99867.53;;;-6.34;86.51
76128;BME280;64873;50.102;14.434;2023-12-04T04:40:12;99870.59;;;-6.41;86.14
76128;BME280;64873;50.102;14.434;2023-12-04T04:42:38;99869.50;;;-6.52;86.54
76128;BME280;64873;50.102;14.434;2023-12-04T04:45:03;99844.63;;;-6.70;85.88
76128;BME280;64873;50.102;14.434;2023-12-04T04:47:29;99858.44;;;-6.41;86.26
76128;BME280;64873;50.102;14.434;2023-12-04T04:49:54;99857.72;;;-6.43;86.31
76128;BME280;64873;50.102;14.434;2023-12-04T04:52:20;99841.00;;;-6.39;86.55
76128;BME280;64873;50.102;14.434;2023-12-04T04:54:45;99856.34;;;-6.22;86.65
76128;BME280;64873;50.102;14.434;2023-12-04T04:57:11;99855.25;;;-6.18;86.28
76128;BME280;64873;50.102;14.434;2023-12-04T04:59:36;99867.88;;;-6.11;86.21
76128;BME280;64873;50.102;14.434;2023-12-04T05:02:02;99866.69;;;-6.34;85.56
76128;BME280;64873;50.102;14.434;2023-12-04T05:04:27;99858.81;;;-6.33;85.91
76128;BME280;64873;50.102;14.434;2023-12-04T05:06:53;99864.53;;;-6.28;85.92
76128;BME280;64873;50.102;14.434;2023-12-04T05:09:18;99868.34;;;-6.33;85.12
76128;BME280;64873;50.102;14.434;2023-12-04T05:11:44;99869.94;;;-6.45;85.53
76128;BME280;64873;50.102;14.434;2023-12-04T05:14:09;99875.88;;;-6.29;85.69
76128;BME280;64873;50.102;14.434;2023-12-04T05:16:34;99871.81;;;-6.33;85.47
76128;BME280;64873;50.102;14.434;2023-12-04T05:19:00;99861.69;;;-6.37;85.36
76128;BME280;64873;50.102;14.434;2023-12-04T05:21:25;99862.16;;;-6.31;84.53
76128;BME280;64873;50.102;14.434;2023-12-04T05:23:51;99863.44;;;-6.24;84.61
76128;BME280;64873;50.102;14.434;2023-12-04T05:26:16;99854.56;;;-6.48;84.83
76128;BME280;64873;50.102;14.434;2023-12-04T05:28:41;99851.59;;;-6.56;85.11
76128;BME280;64873;50.102;14.434;2023-12-04T05:31:07;99857.16;;;-6.48;85.63
76128;BME280;64873;50.102;14.434;2023-12-04T05:33:32;99863.25;;;-6.21;85.89
76128;BME280;64873;50.102;14.434;2023-12-04T05:35:59;99856.59;;;-6.39;85.66
76128;BME280;64873;50.102;14.434;2023-12-04T05:38:25;99847.56;;;-6.33;84.70
76128;BME280;64873;50.102;14.434;2023-12-04T05:40:50;99852.25;;;-6.11;84.78
76128;BME280;64873;50.102;14.434;2023-12-04T05:43:15;99848.81;;;-6.39;84.45
76128;BME280;64873;50.102;14.434;2023-12-04T05:45:41;99844.22;;;-6.35;85.47
76128;BME280;64873;50.102;14.434;2023-12-04T05:48:06;99835.81;;;-6.39;85.17
76128;BME280;64873;50.102;14.434;2023-12-04T05:50:32;99836.00;;;-6.56;84.24
76128;BME280;64873;50.102;14.434;2023-12-04T05:52:57;99845.38;;;-6.54;85.36
76128;BME280;64873;50.102;14.434;2023-12-04T05:55:24;99839.72;;;-6.60;85.18
76128;BME280;64873;50.102;14.434;2023-12-04T05:57:49;99830.06;;;-6.44;84.66
76128;BME280;64873;50.102;14.434;2023-12-04T06:00:15;99821.31;;;-6.43;85.19
76128;BME280;64873;50.102;14.434;2023-12-04T06:02:43;99820.00;;;-6.36;84.43
76128;BME280;64873;50.102;14.434;2023-12-04T06:05:08;99820.50;;;-6.43;85.38
76128;BME280;64873;50.102;14.434;2023-12-04T06:07:35;99814.72;;;-6.49;85.35
76128;BME280;64873;50.102;14.434;2023-12-04T06:10:00;99797.19;;;-6.59;85.60
76128;BME280;64873;50.102;14.434;2023-12-04T06:12:26;99818.94;;;-6.60;86.06
76128;BME280;64873;50.102;14.434;2023-12-04T06:14:51;99813.72;;;-6.60;86.73
76128;BME280;64873;50.102;14.434;2023-12-04T06:17:17;99812.44;;;-6.67;87.06
76128;BME280;64873;50.102;14.434;2023-12-04T06:19:42;99820.63;;;-6.74;87.21
76128;BME280;64873;50.102;14.434;2023-12-04T06:22:08;99817.66;;;-6.67;87.30
76128;BME280;64873;50.102;14.434;2023-12-04T06:24:34;99817.44;;;-6.64;86.69
76128;BME280;64873;50.102;14.434;2023-12-04T06:26:59;99811.22;;;-6.62;87.64
76128;BME280;64873;50.102;14.434;2023-12-04T06:29:25;99805.34;;;-6.51;87.94
76128;BME280;64873;50.102;14.434;2023-12-04T06:31:51;99809.28;;;-6.73;87.43
76128;BME280;64873;50.102;14.434;2023-12-04T06:34:16;99800.72;;;-6.75;87.83
76128;BME280;64873;50.102;14.434;2023-12-04T06:36:42;99809.75;;;-6.66;87.44
76128;BME280;64873;50.102;14.434;2023-12-04T06:39:12;99815.00;;;-6.53;87.83
76128;BME280;64873;50.102;14.434;2023-12-04T06:41:41;99808.91;;;-6.66;88.06
76128;BME280;64873;50.102;14.434;2023-12-04T06:44:07;99801.75;;;-5.82;89.90
76128;BME280;64873;50.102;14.434;2023-12-04T06:46:37;99802.59;;;-5.94;90.48
76128;BME280;64873;50.102;14.434;2023-12-04T06:49:04;99796.22;;;-6.30;88.41
76128;BME280;64873;50.102;14.434;2023-12-04T06:51:30;99802.44;;;-6.32;86.54
76128;BME280;64873;50.102;14.434;2023-12-04T06:53:56;99787.16;;;-6.51;87.19
76128;BME280;64873;50.102;14.434;2023-12-04T06:56:21;99788.28;;;-6.69;86.97
76128;BME280;64873;50.102;14.434;2023-12-04T06:58:46;99788.97;;;-6.66;87.47
76128;BME280;64873;50.102;14.434;2023-12-04T07:01:12;99781.34;;;-6.28;88.90
76128;BME280;64873;50.102;14.434;2023-12-04T07:03:37;99790.38;;;-5.41;90.44
76128;BME280;64873;50.102;14.434;2023-12-04T07:06:03;99782.53;;;-5.92;90.18
76128;BME280;64873;50.102;14.434;2023-12-04T07:08:29;99781.75;;;-6.07;87.81
76128;BME280;64873;50.102;14.434;2023-12-04T07:10:54;99783.19;;;-6.15;88.60
76128;BME280;64873;50.102;14.434;2023-12-04T07:13:19;99778.63;;;-6.53;87.42
76128;BME280;64873;50.102;14.434;2023-12-04T07:15:45;99777.78;;;-6.54;88.09
76128;BME280;64873;50.102;14.434;2023-12-04T07:18:11;99778.84;;;-6.56;87.40
76128;BME280;64873;50.102;14.434;2023-12-04T07:20:36;99781.31;;;-6.55;88.01
76128;BME280;64873;50.102;14.434;2023-12-04T07:23:02;99783.44;;;-6.47;87.64
76128;BME280;64873;50.102;14.434;2023-12-04T07:25:27;99775.69;;;-6.61;87.79
76128;BME280;64873;50.102;14.434;2023-12-04T07:27:52;99778.06;;;-6.44;87.73
76128;BME280;64873;50.102;14.434;2023-12-04T07:30:18;99789.72;;;-6.37;87.69
76128;BME280;64873;50.102;14.434;2023-12-04T07:32:43;99779.66;;;-6.29;88.42
76128;BME280;64873;50.102;14.434;2023-12-04T07:35:09;99781.22;;;-6.39;87.46
76128;BME280;64873;50.102;14.434;2023-12-04T07:37:34;99786.69;;;-6.17;87.78
76128;BME280;64873;50.102;14.434;2023-12-04T07:40:00;99771.38;;;-5.94;88.15
76128;BME280;64873;50.102;14.434;2023-12-04T07:42:25;99764.91;;;-6.01;88.37
76128;BME280;64873;50.102;14.434;2023-12-04T07:44:51;99760.59;;;-5.50;89.70
76128;BME280;64873;50.102;14.434;2023-12-04T07:47:16;99759.31;;;-5.95;87.87
76128;BME280;64873;50.102;14.434;2023-12-04T07:49:42;99759.22;;;-6.21;87.57
76128;BME280;64873;50.102;14.434;2023-12-04T07:52:09;99760.53;;;-6.28;86.76
76128;BME280;64873;50.102;14.434;2023-12-04T07:54:34;99772.09;;;-6.32;86.60
76128;BME280;64873;50.102;14.434;2023-12-04T07:57:00;99764.72;;;-5.85;87.03
76128;BME280;64873;50.102;14.434;2023-12-04T07:59:25;99770.28;;;-6.04;86.85
76128;BME280;64873;50.102;14.434;2023-12-04T08:01:51;99769.16;;;-6.00;86.61
76128;BME280;64873;50.102;14.434;2023-12-04T08:04:16;99759.63;;;-6.27;85.89
76128;BME280;64873;50.102;14.434;2023-12-04T08:06:42;99769.72;;;-6.22;86.05
76128;BME280;64873;50.102;14.434;2023-12-04T08:09:07;99758.28;;;-6.20;85.82
76128;BME280;64873;50.102;14.434;2023-12-04T08:11:35;99769.81;;;-6.24;85.46
76128;BME280;64873;50.102;14.434;2023-12-04T08:14:01;99755.47;;;-6.17;85.83
76128;BME280;64873;50.102;14.434;2023-12-04T08:16:26;99753.41;;;-6.11;85.14
76128;BME280;64873;50.102;14.434;2023-12-04T08:18:54;99752.19;;;-6.06;85.34
76128;BME280;64873;50.102;14.434;2023-12-04T08:21:19;99756.53;;;-6.19;84.56
76128;BME280;64873;50.102;14.434;2023-12-04T08:23:45;99748.00;;;-6.21;84.66
76128;BME280;64873;50.102;14.434;2023-12-04T08:26:11;99749.16;;;-6.12;84.83
76128;BME280;64873;50.102;14.434;2023-12-04T08:28:36;99746.63;;;-6.27;84.60
76128;BME280;64873;50.102;14.434;2023-12-04T08:31:03;99743.63;;;-6.21;84.33
76128;BME280;64873;50.102;14.434;2023-12-04T08:33:28;99738.03;;;-6.14;84.06
76128;BME280;64873;50.102;14.434;2023-12-04T08:35:54;99750.13;;;-5.88;84.38
76128;BME280;64873;50.102;14.434;2023-12-04T08:38:19;99743.97;;;-5.87;83.99
76128;BME280;64873;50.102;14.434;2023-12-04T08:40:45;99742.84;;;-5.83;83.02
76128;BME280;64873;50.102;14.434;2023-12-04T08:43:10;99737.84;;;-5.99;82.87
76128;BME280;64873;50.102;14.434;2023-12-04T08:45:36;99747.69;;;-5.39;83.30
76128;BME280;64873;50.102;14.434;2023-12-04T08:48:03;99743.09;;;-5.35;81.57
76128;BME280;64873;50.102;14.434;2023-12-04T08:50:28;99751.56;;;-5.44;80.83
76128;BME280;64873;50.102;14.434;2023-12-04T08:52:54;99746.63;;;-5.61;80.85
76128;BME280;64873;50.102;14.434;2023-12-04T08:55:19;99751.63;;;-5.58;80.98
76128;BME280;64873;50.102;14.434;2023-12-04T08:57:45;99737.66;;;-5.70;80.75
76128;BME280;64873;50.102;14.434;2023-12-04T09:00:10;99745.63;;;-5.21;79.98
76128;BME280;64873;50.102;14.434;2023-12-04T09:02:36;99738.22;;;-5.27;78.99
76128;BME280;64873;50.102;14.434;2023-12-04T09:05:02;99737.19;;;-5.37;79.54
76128;BME280;64873;50.102;14.434;2023-12-04T09:07:27;99738.31;;;-5.41;79.60
76128;BME280;64873;50.102;14.434;2023-12-04T09:09:52;99732.06;;;-5.51;79.94
76128;BME280;64873;50.102;14.434;2023-12-04T09:12:18;99732.06;;;-5.26;79.44
76128;BME280;64873;50.102;14.434;2023-12-04T09:14:43;99733.53;;;-5.47;79.27
76128;BME280;64873;50.102;14.434;2023-12-04T09:17:10;99721.25;;;-5.45;79.70
76128;BME280;64873;50.102;14.434;2023-12-04T09:19:35;99725.63;;;-5.33;78.90
76128;BME280;64873;50.102;14.434;2023-12-04T09:22:01;99715.81;;;-5.55;79.45
76128;BME280;64873;50.102;14.434;2023-12-04T09:24:26;99722.69;;;-5.41;79.97
76128;BME280;64873;50.102;14.434;2023-12-04T09:26:52;99718.94;;;-5.24;79.62
76128;BME280;64873;50.102;14.434;2023-12-04T09:29:18;99715.81;;;-5.42;78.59
76128;BME280;64873;50.102;14.434;2023-12-04T09:31:43;99716.22;;;-5.23;79.84
76128;BME280;64873;50.102;14.434;2023-12-04T09:34:09;99708.91;;;-5.18;79.11
76128;BME280;64873;50.102;14.434;2023-12-04T09:36:36;99693.69;;;-5.11;77.85
76128;BME280;64873;50.102;14.434;2023-12-04T09:39:01;99698.03;;;-4.86;77.74
76128;BME280;64873;50.102;14.434;2023-12-04T09:41:29;99683.19;;;-4.73;76.53
76128;BME280;64873;50.102;14.434;2023-12-04T09:43:56;99674.06;;;-4.91;77.17
76128;BME280;64873;50.102;14.434;2023-12-04T09:46:22;99682.03;;;-4.69;76.70
76128;BME280;64873;50.102;14.434;2023-12-04T09:48:48;99672.91;;;-4.63;78.35
76128;BME280;64873;50.102;14.434;2023-12-04T09:51:14;99670.28;;;-4.87;77.32
76128;BME280;64873;50.102;14.434;2023-12-04T09:53:41;99649.22;;;-4.84;77.57
76128;BME280;64873;50.102;14.434;2023-12-04T09:56:07;99664.16;;;-4.86;77.22
76128;BME280;64873;50.102;14.434;2023-12-04T09:58:34;99652.66;;;-4.84;77.28
76128;BME280;64873;50.102;14.434;2023-12-04T10:01:01;99640.34;;;-4.58;78.23
76128;BME280;64873;50.102;14.434;2023-12-04T10:03:27;99636.25;;;-4.73;77.48
76128;BME280;64873;50.102;14.434;2023-12-04T10:05:55;99630.81;;;-4.70;77.02
76128;BME280;64873;50.102;14.434;2023-12-04T10:08:21;99635.50;;;-4.86;78.52
76128;BME280;64873;50.102;14.434;2023-12-04T10:10:47;99629.06;;;-4.34;79.06
76128;BME280;64873;50.102;14.434;2023-12-04T10:13:12;99620.44;;;-4.59;76.59
76128;BME280;64873;50.102;14.434;2023-12-04T10:15:48;99603.19;;;-4.48;76.79
76128;BME280;64873;50.102;14.434;2023-12-04T10:18:39;99600.56;;;-4.48;76.40
76128;BME280;64873;50.102;14.434;2023-12-04T10:21:05;99598.53;;;-4.56;76.34
76128;BME280;64873;50.102;14.434;2023-12-04T10:23:40;99591.53;;;-4.56;76.47
76128;BME280;64873;50.102;14.434;2023-12-04T10:26:06;99584.19;;;-4.62;76.67
76128;BME280;64873;50.102;14.434;2023-12-04T10:28:36;99579.88;;;-4.74;76.46
76128;BME280;64873;50.102;14.434;2023-12-04T10:31:02;99584.63;;;-4.68;76.81
76128;BME280;64873;50.102;14.434;2023-12-04T10:33:32;99568.03;;;-4.67;76.46
76128;BME280;64873;50.102;14.434;2023-12-04T10:35:57;99578.16;;;-4.86;76.40
76128;BME280;64873;50.102;14.434;2023-12-04T10:38:28;99584.84;;;-4.71;77.04
76128;BME280;64873;50.102;14.434;2023-12-04T10:40:53;99586.06;;;-4.88;76.35
76128;BME280;64873;50.102;14.434;2023-12-04T10:43:22;99586.78;;;-4.62;76.80
76128;BME280;64873;50.102;14.434;2023-12-04T10:45:49;99574.28;;;-4.69;75.73
76128;BME280;64873;50.102;14.434;2023-12-04T10:48:16;99566.84;;;-4.74;75.91
76128;BME280;64873;50.102;14.434;2023-12-04T10:50:45;99586.44;;;-4.81;76.02
76128;BME280;64873;50.102;14.434;2023-12-04T10:53:12;99580.16;;;-4.54;76.19
76128;BME280;64873;50.102;14.434;2023-12-04T10:55:39;99560.38;;;-4.46;75.09
76128;BME280;64873;50.102;14.434;2023-12-04T10:58:11;99573.84;;;-4.87;76.03
76128;BME280;64873;50.102;14.434;2023-12-04T11:00:46;99572.25;;;-4.77;76.33
76128;BME280;64873;50.102;14.434;2023-12-04T11:03:28;99562.00;;;-4.91;76.05
76128;BME280;64873;50.102;14.434;2023-12-04T11:06:00;99563.84;;;-4.69;76.13
76128;BME280;64873;50.102;14.434;2023-12-04T11:08:28;99563.97;;;-4.36;75.80
76128;BME280;64873;50.102;14.434;2023-12-04T11:11:03;99552.38;;;-4.32;75.30
76128;BME280;64873;50.102;14.434;2023-12-04T11:13:30;99548.19;;;-4.34;76.07
76128;BME280;64873;50.102;14.434;2023-12-04T11:19:35;99529.63;;;-4.18;76.04
76128;BME280;64873;50.102;14.434;2023-12-04T11:21:39;99525.94;;;-4.38;76.30
76128;BME280;64873;50.102;14.434;2023-12-04T11:24:05;99529.63;;;-4.18;75.69
76128;BME280;64873;50.102;14.434;2023-12-04T11:26:32;99510.41;;;-3.95;74.82
76128;BME280;64873;50.102;14.434;2023-12-04T11:28:59;99511.13;;;-4.26;75.32
76128;BME280;64873;50.102;14.434;2023-12-04T11:31:25;99508.06;;;-3.98;74.25
76128;BME280;64873;50.102;14.434;2023-12-04T11:33:51;99488.72;;;-4.07;75.40
76128;BME280;64873;50.102;14.434;2023-12-04T11:36:17;99481.84;;;-4.08;75.30
76128;BME280;64873;50.102;14.434;2023-12-04T11:38:46;99476.13;;;-4.13;75.83
76128;BME280;64873;50.102;14.434;2023-12-04T11:41:21;99483.47;;;-4.29;75.84
76128;BME280;64873;50.102;14.434;2023-12-04T11:43:47;99476.47;;;-4.40;76.06
76128;BME280;64873;50.102;14.434;2023-12-04T11:46:14;99473.28;;;-4.32;76.80
76128;BME280;64873;50.102;14.434;2023-12-04T11:48:47;99460.72;;;-4.27;76.80
76128;BME280;64873;50.102;14.434;2023-12-04T11:51:15;99449.09;;;-4.12;76.38
76128;BME280;64873;50.102;14.434;2023-12-04T11:54:01;99441.75;;;-4.07;76.52
76128;BME280;64873;50.102;14.434;2023-12-04T11:56:30;99435.81;;;-3.97;77.06
76128;BME280;64873;50.102;14.434;2023-12-04T11:59:06;99420.16;;;-3.86;76.98
76128;BME280;64873;50.102;14.434;2023-12-04T12:01:37;99428.06;;;-3.88;77.80
76128;BME280;64873;50.102;14.434;2023-12-04T12:04:06;99425.38;;;-3.97;77.12
76128;BME280;64873;50.102;14.434;2023-12-04T12:06:32;99424.16;;;-3.82;77.05
76128;BME280;64873;50.102;14.434;2023-12-04T12:08:58;99413.72;;;-3.82;77.10
76128;BME280;64873;50.102;14.434;2023-12-04T12:11:24;99392.09;;;-3.73;77.64
76128;BME280;64873;50.102;14.434;2023-12-04T12:13:50;99402.47;;;-3.94;77.67
76128;BME280;64873;50.102;14.434;2023-12-04T12:16:18;99404.09;;;-3.82;77.27
76128;BME280;64873;50.102;14.434;2023-12-04T12:18:43;99400.09;;;-3.86;77.05
76128;BME280;64873;50.102;14.434;2023-12-04T12:21:09;99396.06;;;-3.90;77.43
76128;BME280;64873;50.102;14.434;2023-12-04T12:23:35;99405.88;;;-3.82;77.42
76128;BME280;64873;50.102;14.434;2023-12-04T12:26:00;99387.31;;;-3.57;77.16
76128;BME280;64873;50.102;14.434;2023-12-04T12:28:26;99395.88;;;-3.66;76.47
76128;BME280;64873;50.102;14.434;2023-12-04T12:30:51;99396.47;;;-3.62;76.78
76128;BME280;64873;50.102;14.434;2023-12-04T12:33:19;99396.78;;;-3.56;76.66
76128;BME280;64873;50.102;14.434;2023-12-04T12:35:46;99376.28;;;-3.60;76.59
76128;BME280;64873;50.102;14.434;2023-12-04T12:38:12;99368.09;;;-3.67;77.59
76128;BME280;64873;50.102;14.434;2023-12-04T12:40:38;99364.56;;;-3.77;77.48
76128;BME280;64873;50.102;14.434;2023-12-04T12:43:08;99361.81;;;-3.76;77.26
76128;BME280;64873;50.102;14.434;2023-12-04T12:45:43;99349.56;;;-3.64;77.70
76128;BME280;64873;50.102;14.434;2023-12-04T12:48:16;99356.69;;;-3.66;78.17